sensor_id;sensor_type;location;lat;lon;timestamp;pressure;altitude;pressure_sealevel;temperature;humidity
14689;BME280;7432;48.728;9.154;2023-05-20T00:02:08;144806.94;;;12.22;76.53
14689;BME280;7432;48.728;9.154;2023-05-20T00:04:35;144850.53;;;12.40;75.96
14689;BME280;7432;48.728;9.154;2023-05-20T00:07:01;144827.53;;;12.31;76.66
14689;BME280;7432;48.728;9.154;2023-05-20T00:09:28;144838.44;;;12.35;76.63
14689;BME280;7432;48.728;9.154;2023-05-20T00:11:54;144840.88;;;12.36;76.88
14689;BME280;7432;48.728;9.154;2023-05-20T00:14:22;144837.19;;;12.35;76.83
14689;BME280;7432;48.728;9.154;2023-05-20T00:16:48;144833.59;;;12.33;77.12
14689;BME280;7432;48.728;9.154;2023-05-20T00:19:15;144849.38;;;12.40;77.34
14689;BME280;7432;48.728;9.154;2023-05-20T00:21:41;144848.13;;;12.39;76.83
14689;BME280;7432;48.728;9.154;2023-05-20T00:24:07;144843.31;;;12.37;76.87
14689;BME280;7432;48.728;9.154;2023-05-20T00:26:34;144832.38;;;12.33;77.06
14689;BME280;7432;48.728;9.154;2023-05-20T00:29:00;144840.88;;;12.36;77.17
14689;BME280;7432;48.728;9.154;2023-05-20T00:31:28;144833.59;;;12.33;77.24
14689;BME280;7432;48.728;9.154;2023-05-20T00:33:54;144828.75;;;12.31;77.63
14689;BME280;7432;48.728;9.154;2023-05-20T00:36:21;144833.59;;;12.33;78.03
14689;BME280;7432;48.728;9.154;2023-05-20T00:38:47;144844.47;;;12.38;77.36
14689;BME280;7432;48.728;9.154;2023-05-20T00:41:13;144849.38;;;12.40;77.83
14689;BME280;7432;48.728;9.154;2023-05-20T00:43:40;144843.31;;;12.37;78.24
14689;BME280;7432;48.728;9.154;2023-05-20T00:46:06;144840.88;;;12.36;78.04
14689;BME280;7432;48.728;9.154;2023-05-20T00:48:42;144845.69;;;12.38;77.92
14689;BME280;7432;48.728;9.154;2023-05-20T00:51:09;144850.53;;;12.40;77.94
14689;BME280;7432;48.728;9.154;2023-05-20T00:53:35;144854.19;;;12.42;78.41
14689;BME280;7432;48.728;9.154;2023-05-20T00:56:03;144844.47;;;12.38;78.45
14689;BME280;7432;48.728;9.154;2023-05-20T00:58:29;144846.91;;;12.39;78.59
14689;BME280;7432;48.728;9.154;2023-05-20T01:00:56;144834.81;;;12.34;79.08
14689;BME280;7432;48.728;9.154;2023-05-20T01:03:23;144833.59;;;12.33;79.50
14689;BME280;7432;48.728;9.154;2023-05-20T01:05:50;144831.16;;;12.32;79.47
14689;BME280;7432;48.728;9.154;2023-05-20T01:08:17;144840.88;;;12.36;79.52
14689;BME280;7432;48.728;9.154;2023-05-20T01:10:45;144851.75;;;12.41;79.09
14689;BME280;7432;48.728;9.154;2023-05-20T01:13:18;144849.38;;;12.40;79.31
14689;BME280;7432;48.728;9.154;2023-05-20T01:15:47;144851.75;;;12.41;79.36
14689;BME280;7432;48.728;9.154;2023-05-20T01:18:14;144849.38;;;12.40;79.73
14689;BME280;7432;48.728;9.154;2023-05-20T01:20:42;144848.13;;;12.39;79.85
14689;BME280;7432;48.728;9.154;2023-05-20T01:23:11;144844.47;;;12.38;79.32
14689;BME280;7432;48.728;9.154;2023-05-20T01:25:39;144843.31;;;12.37;80.01
14689;BME280;7432;48.728;9.154;2023-05-20T01:28:06;144842.09;;;12.37;80.21
14689;BME280;7432;48.728;9.154;2023-05-20T01:30:37;144840.88;;;12.36;80.39
14689;BME280;7432;48.728;9.154;2023-05-20T01:33:08;144842.09;;;12.37;80.48
14689;BME280;7432;48.728;9.154;2023-05-20T01:35:36;144842.09;;;12.37;80.48
14689;BME280;7432;48.728;9.154;2023-05-20T01:38:05;144819.03;;;12.27;81.02
14689;BME280;7432;48.728;9.154;2023-05-20T01:40:34;144843.31;;;12.37;80.93
14689;BME280;7432;48.728;9.154;2023-05-20T01:43:01;144845.69;;;12.38;80.90
14689;BME280;7432;48.728;9.154;2023-05-20T01:45:28;144836.03;;;12.34;81.32
14689;BME280;7432;48.728;9.154;2023-05-20T01:47:55;144843.31;;;12.37;81.69
14689;BME280;7432;48.728;9.154;2023-05-20T01:50:21;144838.44;;;12.35;81.47
14689;BME280;7432;48.728;9.154;2023-05-20T01:52:48;144843.31;;;12.37;81.46
14689;BME280;7432;48.728;9.154;2023-05-20T01:55:14;144852.97;;;12.41;81.32
14689;BME280;7432;48.728;9.154;2023-05-20T01:57:42;144855.41;;;12.42;81.38
14689;BME280;7432;48.728;9.154;2023-05-20T02:00:09;144851.75;;;12.41;81.10
14689;BME280;7432;48.728;9.154;2023-05-20T02:02:36;144838.44;;;12.35;81.11
14689;BME280;7432;48.728;9.154;2023-05-20T02:05:02;144836.03;;;12.34;81.98
14689;BME280;7432;48.728;9.154;2023-05-20T02:07:28;144826.31;;;12.30;81.98
14689;BME280;7432;48.728;9.154;2023-05-20T02:09:55;144820.25;;;12.28;81.85
14689;BME280;7432;48.728;9.154;2023-05-20T02:12:21;144812.97;;;12.25;81.99
14689;BME280;7432;48.728;9.154;2023-05-20T02:14:49;144782.72;;;12.12;82.70
14689;BME280;7432;48.728;9.154;2023-05-20T02:17:16;144775.44;;;12.09;83.01
14689;BME280;7432;48.728;9.154;2023-05-20T02:19:43;144764.53;;;12.05;83.27
14689;BME280;7432;48.728;9.154;2023-05-20T02:22:09;144757.28;;;12.02;83.34
14689;BME280;7432;48.728;9.154;2023-05-20T02:24:36;144739.06;;;11.94;84.08
14689;BME280;7432;48.728;9.154;2023-05-20T02:27:02;144713.63;;;11.83;84.36
14689;BME280;7432;48.728;9.154;2023-05-20T02:29:30;144693.03;;;11.75;84.70
14689;BME280;7432;48.728;9.154;2023-05-20T02:31:58;144689.41;;;11.73;84.95
14689;BME280;7432;48.728;9.154;2023-05-20T02:34:24;144666.38;;;11.64;85.87
14689;BME280;7432;48.728;9.154;2023-05-20T02:36:51;144676.06;;;11.68;85.68
14689;BME280;7432;48.728;9.154;2023-05-20T02:39:18;144661.50;;;11.62;86.26
14689;BME280;7432;48.728;9.154;2023-05-20T02:41:45;144660.28;;;11.61;86.29
14689;BME280;7432;48.728;9.154;2023-05-20T02:44:11;144651.84;;;11.58;86.37
14689;BME280;7432;48.728;9.154;2023-05-20T02:46:37;144654.22;;;11.59;86.36
14689;BME280;7432;48.728;9.154;2023-05-20T02:49:05;144651.84;;;11.58;86.27
14689;BME280;7432;48.728;9.154;2023-05-20T02:51:31;144639.75;;;11.53;86.86
14689;BME280;7432;48.728;9.154;2023-05-20T02:53:58;144657.91;;;11.60;86.55
14689;BME280;7432;48.728;9.154;2023-05-20T02:56:24;144654.22;;;11.59;87.14
14689;BME280;7432;48.728;9.154;2023-05-20T02:58:51;144645.78;;;11.55;87.08
14689;BME280;7432;48.728;9.154;2023-05-20T03:01:17;144650.63;;;11.57;86.85
14689;BME280;7432;48.728;9.154;2023-05-20T03:03:44;144625.19;;;11.47;87.67
14689;BME280;7432;48.728;9.154;2023-05-20T03:06:11;144627.59;;;11.48;87.17
14689;BME280;7432;48.728;9.154;2023-05-20T03:08:38;144637.28;;;11.52;87.50
14689;BME280;7432;48.728;9.154;2023-05-20T03:11:06;144646.97;;;11.56;87.35
14689;BME280;7432;48.728;9.154;2023-05-20T03:13:33;144657.91;;;11.60;87.19
14689;BME280;7432;48.728;9.154;2023-05-20T03:15:59;144644.56;;;11.55;87.35
14689;BME280;7432;48.728;9.154;2023-05-20T03:18:26;144642.13;;;11.54;87.36
14689;BME280;7432;48.728;9.154;2023-05-20T03:20:53;144614.28;;;11.42;88.08
14689;BME280;7432;48.728;9.154;2023-05-20T03:23:20;144602.16;;;11.37;88.57
14689;BME280;7432;48.728;9.154;2023-05-20T03:25:47;144586.44;;;11.30;88.83
14689;BME280;7432;48.728;9.154;2023-05-20T03:28:13;144597.34;;;11.35;88.68
14689;BME280;7432;48.728;9.154;2023-05-20T03:30:39;144584.00;;;11.29;88.84
14689;BME280;7432;48.728;9.154;2023-05-20T03:33:06;144574.34;;;11.25;89.07
14689;BME280;7432;48.728;9.154;2023-05-20T03:35:32;144563.41;;;11.21;89.32
14689;BME280;7432;48.728;9.154;2023-05-20T03:37:58;144553.75;;;11.17;89.72
14689;BME280;7432;48.728;9.154;2023-05-20T03:40:27;144531.97;;;11.08;90.31
14689;BME280;7432;48.728;9.154;2023-05-20T03:42:53;144527.13;;;11.06;90.34
14689;BME280;7432;48.728;9.154;2023-05-20T03:45:20;144529.53;;;11.07;90.54
14689;BME280;7432;48.728;9.154;2023-05-20T03:47:46;144536.78;;;11.10;90.40
14689;BME280;7432;48.728;9.154;2023-05-20T03:50:12;144529.53;;;11.07;90.83
14689;BME280;7432;48.728;9.154;2023-05-20T03:52:39;144554.94;;;11.17;90.26
14689;BME280;7432;48.728;9.154;2023-05-20T03:55:06;144576.75;;;11.26;89.93
14689;BME280;7432;48.728;9.154;2023-05-20T03:57:34;144571.91;;;11.24;90.07
14689;BME280;7432;48.728;9.154;2023-05-20T04:00:02;144599.78;;;11.36;89.85
14689;BME280;7432;48.728;9.154;2023-05-20T04:02:34;144608.22;;;11.40;89.74
14689;BME280;7432;48.728;9.154;2023-05-20T04:05:00;144621.53;;;11.45;89.62
14689;BME280;7432;48.728;9.154;2023-05-20T04:07:26;144628.81;;;11.48;89.33
14689;BME280;7432;48.728;9.154;2023-05-20T04:09:54;144642.13;;;11.54;89.45
14689;BME280;7432;48.728;9.154;2023-05-20T04:12:20;144649.41;;;11.57;89.47
14689;BME280;7432;48.728;9.154;2023-05-20T04:14:48;144640.91;;;11.53;89.28
14689;BME280;7432;48.728;9.154;2023-05-20T04:17:16;144654.22;;;11.59;89.38
14689;BME280;7432;48.728;9.154;2023-05-20T04:19:43;144676.06;;;11.68;89.03
14689;BME280;7432;48.728;9.154;2023-05-20T04:22:09;144679.72;;;11.69;88.52
14689;BME280;7432;48.728;9.154;2023-05-20T04:24:35;144690.63;;;11.74;88.79
14689;BME280;7432;48.728;9.154;2023-05-20T04:27:02;144696.69;;;11.76;88.59
14689;BME280;7432;48.728;9.154;2023-05-20T04:29:30;144711.25;;;11.82;88.50
14689;BME280;7432;48.728;9.154;2023-05-20T04:31:59;144724.56;;;11.88;88.07
14689;BME280;7432;48.728;9.154;2023-05-20T04:34:28;144737.91;;;11.94;87.85
14689;BME280;7432;48.728;9.154;2023-05-20T04:36:54;144748.78;;;11.98;87.50
14689;BME280;7432;48.728;9.154;2023-05-20T04:39:22;144759.66;;;12.03;87.48
14689;BME280;7432;48.728;9.154;2023-05-20T04:41:48;144750.00;;;11.99;87.54
14689;BME280;7432;48.728;9.154;2023-05-20T04:44:15;144766.94;;;12.06;87.15
14689;BME280;7432;48.728;9.154;2023-05-20T04:46:41;144774.22;;;12.09;87.27
14689;BME280;7432;48.728;9.154;2023-05-20T04:49:10;144769.38;;;12.07;87.08
14689;BME280;7432;48.728;9.154;2023-05-20T04:51:36;144774.22;;;12.09;87.05
14689;BME280;7432;48.728;9.154;2023-05-20T04:54:03;144793.59;;;12.17;87.23
14689;BME280;7432;48.728;9.154;2023-05-20T04:56:30;144816.63;;;12.26;86.83
14689;BME280;7432;48.728;9.154;2023-05-20T04:58:57;144834.81;;;12.34;85.83
14689;BME280;7432;48.728;9.154;2023-05-20T05:01:24;144849.38;;;12.40;85.54
14689;BME280;7432;48.728;9.154;2023-05-20T05:03:50;144850.53;;;12.40;85.27
14689;BME280;7432;48.728;9.154;2023-05-20T05:06:18;144889.34;;;12.57;86.00
14689;BME280;7432;48.728;9.154;2023-05-20T05:08:44;144900.25;;;12.61;84.80
14689;BME280;7432;48.728;9.154;2023-05-20T05:11:11;144906.31;;;12.64;84.86
14689;BME280;7432;48.728;9.154;2023-05-20T05:13:37;144926.91;;;12.72;85.24
14689;BME280;7432;48.728;9.154;2023-05-20T05:16:04;144924.47;;;12.71;84.31
14689;BME280;7432;48.728;9.154;2023-05-20T05:18:30;144906.31;;;12.64;85.08
14689;BME280;7432;48.728;9.154;2023-05-20T05:20:58;144908.75;;;12.65;84.84
14689;BME280;7432;48.728;9.154;2023-05-20T05:23:27;144925.69;;;12.72;85.17
14689;BME280;7432;48.728;9.154;2023-05-20T05:25:53;144935.41;;;12.76;85.15
14689;BME280;7432;48.728;9.154;2023-05-20T05:28:19;144957.22;;;12.85;83.91
14689;BME280;7432;48.728;9.154;2023-05-20T05:30:46;145008.13;;;13.06;83.71
14689;BME280;7432;48.728;9.154;2023-05-20T05:33:13;145021.50;;;13.12;83.31
14689;BME280;7432;48.728;9.154;2023-05-20T05:35:39;145082.16;;;13.37;81.94
14689;BME280;7432;48.728;9.154;2023-05-20T05:38:06;145078.53;;;13.35;83.34
14689;BME280;7432;48.728;9.154;2023-05-20T05:40:34;145159.78;;;13.69;82.09
14689;BME280;7432;48.728;9.154;2023-05-20T05:43:00;145249.56;;;14.06;79.70
14689;BME280;7432;48.728;9.154;2023-05-20T05:45:27;145267.78;;;14.14;78.03
14689;BME280;7432;48.728;9.154;2023-05-20T05:47:53;145232.56;;;13.99;78.56
14689;BME280;7432;48.728;9.154;2023-05-20T05:50:19;145249.56;;;14.06;79.43
14689;BME280;7432;48.728;9.154;2023-05-20T05:52:46;145222.88;;;13.95;79.37
14689;BME280;7432;48.728;9.154;2023-05-20T05:55:12;145233.78;;;14.00;79.72
14689;BME280;7432;48.728;9.154;2023-05-20T05:57:40;145285.97;;;14.21;78.44
14689;BME280;7432;48.728;9.154;2023-05-20T06:00:07;145385.53;;;14.63;77.01
14689;BME280;7432;48.728;9.154;2023-05-20T06:02:34;145400.13;;;14.69;76.85
14689;BME280;7432;48.728;9.154;2023-05-20T06:05:01;145452.31;;;14.91;76.02
14689;BME280;7432;48.728;9.154;2023-05-20T06:07:27;145483.88;;;15.04;75.30
14689;BME280;7432;48.728;9.154;2023-05-20T06:09:54;145527.59;;;15.22;74.58
14689;BME280;7432;48.728;9.154;2023-05-20T06:12:20;145523.97;;;15.20;75.48
14689;BME280;7432;48.728;9.154;2023-05-20T06:14:48;145520.34;;;15.19;74.25
14689;BME280;7432;48.728;9.154;2023-05-20T06:17:14;145595.69;;;15.50;73.51
14689;BME280;7432;48.728;9.154;2023-05-20T06:19:40;145502.09;;;15.11;75.19
14689;BME280;7432;48.728;9.154;2023-05-20T06:22:07;145493.63;;;15.08;75.35
14689;BME280;7432;48.728;9.154;2023-05-20T06:24:33;145485.13;;;15.04;75.43
14689;BME280;7432;48.728;9.154;2023-05-20T06:27:00;145491.19;;;15.07;75.52
14689;BME280;7432;48.728;9.154;2023-05-20T06:29:27;145532.50;;;15.24;75.36
14689;BME280;7432;48.728;9.154;2023-05-20T06:31:55;145593.28;;;15.49;73.91
14689;BME280;7432;48.728;9.154;2023-05-20T06:34:21;145645.50;;;15.71;73.87
14689;BME280;7432;48.728;9.154;2023-05-20T06:36:48;145725.66;;;16.04;72.24
14689;BME280;7432;48.728;9.154;2023-05-20T06:39:14;145720.81;;;16.02;72.27
14689;BME280;7432;48.728;9.154;2023-05-20T06:41:40;145739.03;;;16.10;70.69
14689;BME280;7432;48.728;9.154;2023-05-20T06:44:08;145725.66;;;16.04;71.04
14689;BME280;7432;48.728;9.154;2023-05-20T06:46:34;145734.19;;;16.08;70.81
14689;BME280;7432;48.728;9.154;2023-05-20T06:49:02;145808.34;;;16.38;70.91
14689;BME280;7432;48.728;9.154;2023-05-20T06:51:28;145936.03;;;16.91;68.74
14689;BME280;7432;48.728;9.154;2023-05-20T06:53:55;145960.38;;;17.01;68.72
14689;BME280;7432;48.728;9.154;2023-05-20T06:56:21;145857.00;;;16.58;69.74
14689;BME280;7432;48.728;9.154;2023-05-20T06:58:48;145922.66;;;16.86;68.48
14689;BME280;7432;48.728;9.154;2023-05-20T07:01:14;145850.91;;;16.56;69.57
14689;BME280;7432;48.728;9.154;2023-05-20T07:03:40;145794.97;;;16.33;70.31
14689;BME280;7432;48.728;9.154;2023-05-20T07:06:09;145860.66;;;16.60;70.08
14689;BME280;7432;48.728;9.154;2023-05-20T07:08:36;146187.91;;;17.96;65.27
14689;BME280;7432;48.728;9.154;2023-05-20T07:11:02;146376.66;;;18.74;62.78
14689;BME280;7432;48.728;9.154;2023-05-20T07:13:29;146678.84;;;19.99;58.06
14689;BME280;7432;48.728;9.154;2023-05-20T07:15:55;146681.25;;;20.00;57.64
14689;BME280;7432;48.728;9.154;2023-05-20T07:18:22;146742.25;;;20.25;56.83
14689;BME280;7432;48.728;9.154;2023-05-20T07:20:48;147000.81;;;21.32;53.65
14689;BME280;7432;48.728;9.154;2023-05-20T07:23:16;146910.53;;;20.95;54.51
14689;BME280;7432;48.728;9.154;2023-05-20T07:25:42;146673.97;;;19.97;56.86
14689;BME280;7432;48.728;9.154;2023-05-20T07:28:08;146465.56;;;19.11;58.70
14689;BME280;7432;48.728;9.154;2023-05-20T07:30:35;146615.44;;;19.73;57.17
14689;BME280;7432;48.728;9.154;2023-05-20T07:33:01;146644.69;;;19.85;57.03
14689;BME280;7432;48.728;9.154;2023-05-20T07:35:28;147078.91;;;21.64;53.28
14689;BME280;7432;48.728;9.154;2023-05-20T07:37:54;147802.22;;;24.63;45.99
14689;BME280;7432;48.728;9.154;2023-05-20T07:40:22;147532.06;;;23.51;47.06
14689;BME280;7432;48.728;9.154;2023-05-20T07:42:48;146950.84;;;21.11;52.84
14689;BME280;7432;48.728;9.154;2023-05-20T07:45:14;146659.34;;;19.91;55.52
14689;BME280;7432;48.728;9.154;2023-05-20T07:47:41;146578.91;;;19.58;56.57
14689;BME280;7432;48.728;9.154;2023-05-20T07:50:08;146514.28;;;19.31;57.98
14689;BME280;7432;48.728;9.154;2023-05-20T07:52:34;146511.84;;;19.30;57.86
14689;BME280;7432;48.728;9.154;2023-05-20T07:55:00;146509.44;;;19.29;58.58
14689;BME280;7432;48.728;9.154;2023-05-20T07:57:29;146476.53;;;19.15;58.69
14689;BME280;7432;48.728;9.154;2023-05-20T07:59:55;146468.00;;;19.12;58.90
14689;BME280;7432;48.728;9.154;2023-05-20T08:02:21;146630.06;;;19.79;58.05
14689;BME280;7432;48.728;9.154;2023-05-20T08:04:48;146769.06;;;20.36;55.45
14689;BME280;7432;48.728;9.154;2023-05-20T08:07:14;146730.00;;;20.20;55.55
14689;BME280;7432;48.728;9.154;2023-05-20T08:09:41;146749.56;;;20.28;56.30
14689;BME280;7432;48.728;9.154;2023-05-20T08:12:07;146492.34;;;19.22;58.66
14689;BME280;7432;48.728;9.154;2023-05-20T08:14:35;146398.56;;;18.83;59.64
14689;BME280;7432;48.728;9.154;2023-05-20T08:17:01;146304.78;;;18.44;60.78
14689;BME280;7432;48.728;9.154;2023-05-20T08:19:27;146264.63;;;18.27;62.43
14689;BME280;7432;48.728;9.154;2023-05-20T08:21:54;146159.91;;;17.84;63.31
14689;BME280;7432;48.728;9.154;2023-05-20T08:24:20;146191.56;;;17.97;64.13
14689;BME280;7432;48.728;9.154;2023-05-20T08:26:46;146145.34;;;17.78;64.62
14689;BME280;7432;48.728;9.154;2023-05-20T08:29:13;146047.91;;;17.38;65.58
14689;BME280;7432;48.728;9.154;2023-05-20T08:31:41;146189.13;;;17.96;64.61
14689;BME280;7432;48.728;9.154;2023-05-20T08:34:07;146321.88;;;18.51;61.64
14689;BME280;7432;48.728;9.154;2023-05-20T08:36:34;146232.94;;;18.14;63.00
14689;BME280;7432;48.728;9.154;2023-05-20T08:39:00;146264.63;;;18.27;62.91
14689;BME280;7432;48.728;9.154;2023-05-20T08:41:28;146174.50;;;17.90;62.99
14689;BME280;7432;48.728;9.154;2023-05-20T08:43:56;146088.13;;;17.54;64.17
14689;BME280;7432;48.728;9.154;2023-05-20T08:46:24;146415.63;;;18.90;61.97
14689;BME280;7432;48.728;9.154;2023-05-20T08:48:52;146806.84;;;20.52;56.55
14689;BME280;7432;48.728;9.154;2023-05-20T08:51:20;147447.72;;;23.17;50.71
14689;BME280;7432;48.728;9.154;2023-05-20T08:53:47;148064.06;;;25.71;45.33
14689;BME280;7432;48.728;9.154;2023-05-20T08:56:15;148545.38;;;27.69;39.52
14689;BME280;7432;48.728;9.154;2023-05-20T08:58:42;148435.09;;;27.24;39.06
14689;BME280;7432;48.728;9.154;2023-05-20T09:01:08;147957.59;;;25.27;42.89
14689;BME280;7432;48.728;9.154;2023-05-20T09:03:35;147513.75;;;23.44;46.09
14689;BME280;7432;48.728;9.154;2023-05-20T09:06:07;147466.03;;;23.24;46.52
14689;BME280;7432;48.728;9.154;2023-05-20T09:08:34;147623.69;;;23.89;45.37
14689;BME280;7432;48.728;9.154;2023-05-20T09:11:00;147756.97;;;24.44;44.68
14689;BME280;7432;48.728;9.154;2023-05-20T09:13:29;147758.22;;;24.45;45.10
14689;BME280;7432;48.728;9.154;2023-05-20T09:15:58;147891.53;;;25.00;42.66
14689;BME280;7432;48.728;9.154;2023-05-20T09:18:24;147808.31;;;24.65;43.95
14689;BME280;7432;48.728;9.154;2023-05-20T09:20:51;147495.34;;;23.36;46.93
14689;BME280;7432;48.728;9.154;2023-05-20T09:23:19;147453.84;;;23.19;47.50
14689;BME280;7432;48.728;9.154;2023-05-20T09:25:48;147309.63;;;22.60;48.84
14689;BME280;7432;48.728;9.154;2023-05-20T09:28:14;146821.50;;;20.58;53.62
14689;BME280;7432;48.728;9.154;2023-05-20T09:30:42;146762.97;;;20.34;54.35
14689;BME280;7432;48.728;9.154;2023-05-20T09:33:10;146770.28;;;20.37;55.49
14689;BME280;7432;48.728;9.154;2023-05-20T09:35:37;146860.50;;;20.74;53.93
14689;BME280;7432;48.728;9.154;2023-05-20T09:38:05;146887.34;;;20.85;54.83
14689;BME280;7432;48.728;9.154;2023-05-20T09:40:33;146958.16;;;21.14;52.92
14689;BME280;7432;48.728;9.154;2023-05-20T09:43:02;146895.88;;;20.89;53.16
14689;BME280;7432;48.728;9.154;2023-05-20T09:45:29;146926.34;;;21.01;53.34
14689;BME280;7432;48.728;9.154;2023-05-20T09:47:56;147006.91;;;21.35;52.60
14689;BME280;7432;48.728;9.154;2023-05-20T09:50:23;147264.47;;;22.41;51.85
14689;BME280;7432;48.728;9.154;2023-05-20T09:52:51;147271.81;;;22.44;50.90
14689;BME280;7432;48.728;9.154;2023-05-20T09:55:19;147203.44;;;22.16;50.42
14689;BME280;7432;48.728;9.154;2023-05-20T09:57:47;147268.16;;;22.42;50.43
14689;BME280;7432;48.728;9.154;2023-05-20T10:00:25;147392.75;;;22.94;48.40
14689;BME280;7432;48.728;9.154;2023-05-20T10:02:51;147470.91;;;23.26;48.49
14689;BME280;7432;48.728;9.154;2023-05-20T10:05:19;147545.50;;;23.57;47.80
14689;BME280;7432;48.728;9.154;2023-05-20T10:08:04;147741.06;;;24.38;46.07
14689;BME280;7432;48.728;9.154;2023-05-20T10:10:43;147912.28;;;25.08;44.41
14689;BME280;7432;48.728;9.154;2023-05-20T10:13:21;147875.63;;;24.93;43.52
14689;BME280;7432;48.728;9.154;2023-05-20T10:15:56;147756.97;;;24.44;44.82
14689;BME280;7432;48.728;9.154;2023-05-20T10:18:35;147500.31;;;23.38;47.05
14689;BME280;7432;48.728;9.154;2023-05-20T10:21:14;147698.31;;;24.20;47.12
14689;BME280;7432;48.728;9.154;2023-05-20T10:23:41;147933.09;;;25.17;44.86
14689;BME280;7432;48.728;9.154;2023-05-20T10:26:07;148043.28;;;25.62;43.00
14689;BME280;7432;48.728;9.154;2023-05-20T10:28:35;147858.53;;;24.86;43.94
14689;BME280;7432;48.728;9.154;2023-05-20T10:31:14;147682.41;;;24.13;45.74
14689;BME280;7432;48.728;9.154;2023-05-20T10:33:42;147567.47;;;23.66;47.10
14689;BME280;7432;48.728;9.154;2023-05-20T10:36:09;147583.38;;;23.73;47.55
14689;BME280;7432;48.728;9.154;2023-05-20T10:38:35;147594.34;;;23.77;46.34
14689;BME280;7432;48.728;9.154;2023-05-20T10:41:07;147675.06;;;24.10;47.17
14689;BME280;7432;48.728;9.154;2023-05-20T10:43:35;147892.72;;;25.00;43.97
14689;BME280;7432;48.728;9.154;2023-05-20T10:46:01;148039.56;;;25.61;42.10
14689;BME280;7432;48.728;9.154;2023-05-20T10:48:30;148509.81;;;27.54;40.06
14689;BME280;7432;48.728;9.154;2023-05-20T10:50:58;148525.75;;;27.61;38.99
14689;BME280;7432;48.728;9.154;2023-05-20T10:53:28;148739.03;;;28.49;37.55
14689;BME280;7432;48.728;9.154;2023-05-20T10:55:55;148546.59;;;27.70;38.85
14689;BME280;7432;48.728;9.154;2023-05-20T10:58:23;148379.97;;;27.01;39.24
14689;BME280;7432;48.728;9.154;2023-05-20T11:00:52;148623.78;;;28.01;38.78
14689;BME280;7432;48.728;9.154;2023-05-20T11:03:21;148669.16;;;28.20;36.78
14689;BME280;7432;48.728;9.154;2023-05-20T11:05:49;148677.75;;;28.23;37.24
14689;BME280;7432;48.728;9.154;2023-05-20T11:08:16;148411.78;;;27.14;38.93
14689;BME280;7432;48.728;9.154;2023-05-20T11:10:42;148087.31;;;25.80;40.62
14689;BME280;7432;48.728;9.154;2023-05-20T11:13:11;147951.47;;;25.24;42.14
14689;BME280;7432;48.728;9.154;2023-05-20T11:15:38;147886.63;;;24.98;43.32
14689;BME280;7432;48.728;9.154;2023-05-20T11:18:05;148055.50;;;25.67;41.98
14689;BME280;7432;48.728;9.154;2023-05-20T11:20:31;147989.38;;;25.40;40.96
14689;BME280;7432;48.728;9.154;2023-05-20T11:23:01;147714.16;;;24.27;43.93
14689;BME280;7432;48.728;9.154;2023-05-20T11:25:28;147728.84;;;24.33;43.36
14689;BME280;7432;48.728;9.154;2023-05-20T11:27:54;148048.16;;;25.64;42.11
14689;BME280;7432;48.728;9.154;2023-05-20T11:30:21;148210.94;;;26.31;40.24
14689;BME280;7432;48.728;9.154;2023-05-20T11:32:58;148416.69;;;27.16;38.95
14689;BME280;7432;48.728;9.154;2023-05-20T11:35:25;148540.47;;;27.67;38.24
14689;BME280;7432;48.728;9.154;2023-05-20T11:37:54;148235.47;;;26.41;39.11
14689;BME280;7432;48.728;9.154;2023-05-20T11:40:24;148018.78;;;25.52;41.29
14689;BME280;7432;48.728;9.154;2023-05-20T11:42:52;147659.16;;;24.04;43.92
14689;BME280;7432;48.728;9.154;2023-05-20T11:45:19;147617.59;;;23.87;44.33
14689;BME280;7432;48.728;9.154;2023-05-20T11:47:45;147579.72;;;23.71;44.30
14689;BME280;7432;48.728;9.154;2023-05-20T11:50:15;147472.16;;;23.27;44.80
14689;BME280;7432;48.728;9.154;2023-05-20T11:52:42;147392.75;;;22.94;46.82
14689;BME280;7432;48.728;9.154;2023-05-20T11:55:09;147346.34;;;22.75;47.49
14689;BME280;7432;48.728;9.154;2023-05-20T11:57:37;147213.22;;;22.20;48.10
14689;BME280;7432;48.728;9.154;2023-05-20T12:00:05;147259.59;;;22.39;48.03
14689;BME280;7432;48.728;9.154;2023-05-20T12:02:34;147418.41;;;23.05;47.18
14689;BME280;7432;48.728;9.154;2023-05-20T12:05:01;147483.13;;;23.31;46.53
14689;BME280;7432;48.728;9.154;2023-05-20T12:07:28;147747.19;;;24.40;46.17
14689;BME280;7432;48.728;9.154;2023-05-20T12:09:54;147928.22;;;25.15;42.84
14689;BME280;7432;48.728;9.154;2023-05-20T12:12:20;147857.28;;;24.86;42.59
14689;BME280;7432;48.728;9.154;2023-05-20T12:14:49;147936.78;;;25.18;44.32
14689;BME280;7432;48.728;9.154;2023-05-20T12:17:16;148033.47;;;25.58;42.78
14689;BME280;7432;48.728;9.154;2023-05-20T12:19:42;148054.25;;;25.67;42.74
14689;BME280;7432;48.728;9.154;2023-05-20T12:22:08;147905.00;;;25.05;42.65
14689;BME280;7432;48.728;9.154;2023-05-20T12:24:35;147926.97;;;25.14;43.10
14689;BME280;7432;48.728;9.154;2023-05-20T12:27:01;147835.22;;;24.76;41.94
14689;BME280;7432;48.728;9.154;2023-05-20T12:29:28;147782.66;;;24.55;43.83
14689;BME280;7432;48.728;9.154;2023-05-20T12:31:55;147672.66;;;24.09;45.39
14689;BME280;7432;48.728;9.154;2023-05-20T12:34:22;147626.16;;;23.90;45.04
14689;BME280;7432;48.728;9.154;2023-05-20T12:36:48;147587.06;;;23.74;44.02
14689;BME280;7432;48.728;9.154;2023-05-20T12:39:15;147541.81;;;23.55;45.31
14689;BME280;7432;48.728;9.154;2023-05-20T12:41:42;147574.78;;;23.69;45.26
14689;BME280;7432;48.728;9.154;2023-05-20T12:44:09;147562.59;;;23.64;45.73
14689;BME280;7432;48.728;9.154;2023-05-20T12:46:35;147587.06;;;23.74;45.41
14689;BME280;7432;48.728;9.154;2023-05-20T12:49:03;147523.50;;;23.48;45.32
14689;BME280;7432;48.728;9.154;2023-05-20T12:51:30;147521.06;;;23.47;45.96
14689;BME280;7432;48.728;9.154;2023-05-20T12:53:56;147529.59;;;23.50;46.28
14689;BME280;7432;48.728;9.154;2023-05-20T12:56:23;147598.03;;;23.79;44.58
14689;BME280;7432;48.728;9.154;2023-05-20T12:58:50;147523.50;;;23.48;46.16
14689;BME280;7432;48.728;9.154;2023-05-20T13:01:16;147555.25;;;23.61;45.83